KTYS/TYS METAR and TAF weather

Enter ICAO airport designator
Station Type Date Time Source
KTYS METAR 2019/08/23 14:53 UTC NOAA

KTYS 231453Z 00000KT 10SM FEW016 SCT029 BKN090 BKN250 26/22 A3007 RMK AO2 SLP171 T02610217 53003


Station Type Date Time Source
KTYS Decoded METAR 2019/08/23 14:53 UTC NOAA

Station name not available
Aug 23, 2019 - 10:53 AM EDT / 2019.08.23 1453 UTC
Wind: Calm:0
Visibility: 10 mile(s):0
Sky conditions: mostly cloudy
Temperature: 79.0 F (26.1 C)
Dew Point: 71.1 F (21.7 C)
Relative Humidity: 76%
Pressure (altimeter): 30.07 in. Hg (1018 hPa)
Pressure tendency: 0.01 inches (0.3 hPa) higher than three hours ago
ob: KTYS 231453Z 00000KT 10SM FEW016 SCT029 BKN090 BKN250 26/22 A3007 RMK AO2 SLP171 T02610217 53003
cycle: 15

Station Type Date Time Source
KTYS TAF 2019/08/23 12:33 UTC NOAA

TAF KTYS 231130Z 2312/2412 23006KT P6SM BKN050
FM231900 25007KT P6SM VCTS SCT030CB
FM232300 28005KT P6SM SCT040 PROB30 2323/2324 4SM TSRA BKN040CB

Example: see airport list